Station Historical Data
Daily Summary for January 28, 2012 Units:  Both    English   Metric
« Previous Day
Next Day »
Daily Weekly Monthly Yearly Custom
  High: Low: Average:
Temperature: 50.6 °F /  10.3 °C 31.1 °F /  -0.5 °C 42.8 °F /  6 °C
Dew Point: 41.3 °F /  5.2 °C 15.5 °F /  -9.2 °C 28.2 °F /  -2.1 °C
Humidity: 93% 27% 61%
Wind Speed: 16.0mph /  25.7km/h - 5mph /  8km/h
Wind Gust: 26.0mph /  41.8km/h - -
Wind- - West
Pressure: 30.38 in /  1028.7 hPa 30.04 in /  1017.2 hPa -
Precipitation: 0.00 in /  0 mm    
Historical Graphs
 
 
Tabular Data for January 28, 2012
Time Temperature Dew Point Pressure Wind Wind Speed Wind Gust Humidity Rainfall Rate (Hourly) Conditions
00:00 40.9 °F /  4.9 °C 37.0 °F /  2.8 °C 30.05in /  1017.5hPa SSE 1.0mph /  1.6km/h 1.0mph /  1.6km/h 86% 0.00in /  0mm
00:01 40.9 °F /  4.9 °C 37.0 °F /  2.8 °C 30.05in /  1017.5hPa SSE 2.0mph /  3.2km/h 2.0mph /  3.2km/h 86% 0.00in /  0mm
00:06 41.2 °F /  5.1 °C 37.3 °F /  2.9 °C 30.05in /  1017.5hPa ESE 6.0mph /  9.7km/h 6.0mph /  9.7km/h 86% 0.00in /  0mm
00:11 41.7 °F /  5.4 °C 37.5 °F /  3.1 °C 30.04in /  1017.2hPa SE 6.0mph /  9.7km/h 7.0mph /  11.3km/h 85% 0.00in /  0mm
00:16 42.1 °F /  5.6 °C 37.9 °F /  3.3 °C 30.04in /  1017.2hPa SE 4.0mph /  6.4km/h 7.0mph /  11.3km/h 85% 0.00in /  0mm
00:21 42.1 °F /  5.6 °C 37.9 °F /  3.3 °C 30.04in /  1017.2hPa SE 3.0mph /  4.8km/h 6.0mph /  9.7km/h 85% 0.00in /  0mm
00:26 42.1 °F /  5.6 °C 37.6 °F /  3.1 °C 30.04in /  1017.2hPa SE 4.0mph /  6.4km/h 5.0mph /  8km/h 84% 0.00in /  0mm
00:31 42.0 °F /  5.6 °C 37.5 °F /  3.1 °C 30.04in /  1017.2hPa SSE 5.0mph /  8km/h 5.0mph /  8km/h 84% 0.00in /  0mm
00:36 42.0 °F /  5.6 °C 37.5 °F /  3.1 °C 30.04in /  1017.2hPa SE 4.0mph /  6.4km/h 9.0mph /  14.5km/h 84% 0.00in /  0mm
00:41 41.9 °F /  5.5 °C 37.7 °F /  3.2 °C 30.04in /  1017.2hPa SE 4.0mph /  6.4km/h 6.0mph /  9.7km/h 85% 0.00in /  0mm
00:46 41.8 °F /  5.4 °C 37.6 °F /  3.1 °C 30.04in /  1017.2hPa SSE 4.0mph /  6.4km/h 5.0mph /  8km/h 85% 0.00in /  0mm
00:51 41.7 °F /  5.4 °C 37.5 °F /  3.1 °C 30.05in /  1017.5hPa SSE 5.0mph /  8km/h 6.0mph /  9.7km/h 85% 0.00in /  0mm
00:56 41.6 °F /  5.3 °C 37.7 °F /  3.2 °C 30.04in /  1017.2hPa ESE 5.0mph /  8km/h 6.0mph /  9.7km/h 86% 0.00in /  0mm
01:01 41.5 °F /  5.3 °C 37.6 °F /  3.1 °C 30.05in /  1017.5hPa SSE 3.0mph /  4.8km/h 5.0mph /  8km/h 86% 0.00in /  0mm
01:06 41.3 °F /  5.2 °C 37.4 °F /  3 °C 30.05in /  1017.5hPa SSE 1.0mph /  1.6km/h 2.0mph /  3.2km/h 86% 0.00in /  0mm
01:11 41.0 °F /  5 °C 37.4 °F /  3 °C 30.05in /  1017.5hPa SSW 1.0mph /  1.6km/h 2.0mph /  3.2km/h 87% 0.00in /  0mm
01:16 40.8 °F /  4.9 °C 37.5 °F /  3.1 °C 30.04in /  1017.2hPa SE 3.0mph /  4.8km/h 4.0mph /  6.4km/h 88% 0.00in /  0mm
01:21 41.0 °F /  5 °C 37.7 °F /  3.2 °C 30.04in /  1017.2hPa SSE 4.0mph /  6.4km/h 5.0mph /  8km/h 88% 0.00in /  0mm
01:26 40.9 °F /  4.9 °C 37.6 °F /  3.1 °C 30.06in /  1017.8hPa West 2.0mph /  3.2km/h 2.0mph /  3.2km/h 88% 0.00in /  0mm
01:31 40.0 °F /  4.4 °C 36.5 °F /  2.5 °C 30.06in /  1017.8hPa WNW 1.0mph /  1.6km/h 2.0mph /  3.2km/h 87% 0.00in /  0mm
01:36 39.3 °F /  4.1 °C 36.6 °F /  2.6 °C 30.06in /  1017.8hPa Calm   1.0mph /  1.6km/h 90% 0.00in /  0mm
01:41 39.3 °F /  4.1 °C 37.2 °F /  2.9 °C 30.06in /  1017.8hPa Calm   1.0mph /  1.6km/h 92% 0.00in /  0mm
01:46 38.9 °F /  3.8 °C 36.2 °F /  2.3 °C 30.06in /  1017.8hPa Calm     90% 0.00in /  0mm
01:51 38.4 °F /  3.6 °C 36.0 °F /  2.2 °C 30.06in /  1017.8hPa Calm     91% 0.00in /  0mm
01:56 38.4 °F /  3.6 °C 36.6 °F /  2.6 °C 30.06in /  1017.8hPa Calm   1.0mph /  1.6km/h 93% 0.00in /  0mm
02:02 38.4 °F /  3.6 °C 36.6 °F /  2.6 °C 30.05in /  1017.5hPa SSE 1.0mph /  1.6km/h 1.0mph /  1.6km/h 93% 0.00in /  0mm
02:07 38.5 °F /  3.6 °C 36.7 °F /  2.6 °C 30.05in /  1017.5hPa South 1.0mph /  1.6km/h 2.0mph /  3.2km/h 93% 0.00in /  0mm
02:12 38.8 °F /  3.8 °C 37.0 °F /  2.8 °C 30.05in /  1017.5hPa Calm   1.0mph /  1.6km/h 93% 0.00in /  0mm
02:17 38.9 °F /  3.8 °C 37.0 °F /  2.8 °C 30.05in /  1017.5hPa Calm   1.0mph /  1.6km/h 93% 0.00in /  0mm
02:22 38.8 °F /  3.8 °C 37.0 °F /  2.8 °C 30.05in /  1017.5hPa SSE 1.0mph /  1.6km/h 1.0mph /  1.6km/h 93% 0.00in /  0mm
02:27 39.1 °F /  3.9 °C 37.2 °F /  2.9 °C 30.05in /  1017.5hPa SSE 2.0mph /  3.2km/h 2.0mph /  3.2km/h 93% 0.00in /  0mm
02:32 39.2 °F /  4 °C 37.3 °F /  2.9 °C 30.05in /  1017.5hPa Calm   1.0mph /  1.6km/h 93% 0.00in /  0mm
02:37 39.2 °F /  4 °C 37.3 °F /  2.9 °C 30.05in /  1017.5hPa SSE 1.0mph /  1.6km/h 1.0mph /  1.6km/h 93% 0.00in /  0mm
02:38 39.3 °F /  4.1 °C 37.5 °F /  3.1 °C 30.05in /  1017.5hPa SSE 1.0mph /  1.6km/h 2.0mph /  3.2km/h 93% 0.00in /  0mm
02:43 39.5 °F /  4.2 °C 37.7 °F /  3.2 °C 30.05in /  1017.5hPa SSE 1.0mph /  1.6km/h 2.0mph /  3.2km/h 93% 0.00in /  0mm
02:48 39.6 °F /  4.2 °C 37.8 °F /  3.2 °C 30.06in /  1017.8hPa SSE 1.0mph /  1.6km/h 2.0mph /  3.2km/h 93% 0.00in /  0mm
02:53 39.9 °F /  4.4 °C 38.0 °F /  3.3 °C 30.06in /  1017.8hPa SSE 2.0mph /  3.2km/h 3.0mph /  4.8km/h 93% 0.00in /  0mm
02:58 40.1 °F /  4.5 °C 38.2 °F /  3.4 °C 30.05in /  1017.5hPa SSE 2.0mph /  3.2km/h 3.0mph /  4.8km/h 93% 0.00in /  0mm
03:03 40.0 °F /  4.4 °C 37.9 °F /  3.3 °C 30.06in /  1017.8hPa SSE 2.0mph /  3.2km/h 2.0mph /  3.2km/h 92% 0.00in /  0mm
03:08 39.8 °F /  4.3 °C 37.7 °F /  3.2 °C 30.06in /  1017.8hPa SSE 2.0mph /  3.2km/h 2.0mph /  3.2km/h 92% 0.00in /  0mm
03:13 39.8 °F /  4.3 °C 37.7 °F /  3.2 °C 30.06in /  1017.8hPa SSE 2.0mph /  3.2km/h 3.0mph /  4.8km/h 92% 0.00in /  0mm
03:18 39.9 °F /  4.4 °C 37.8 °F /  3.2 °C 30.06in /  1017.8hPa SSE 2.0mph /  3.2km/h 3.0mph /  4.8km/h 92% 0.00in /  0mm
03:23 39.7 °F /  4.3 °C 37.6 °F /  3.1 °C 30.06in /  1017.8hPa SSE 2.0mph /  3.2km/h 3.0mph /  4.8km/h 92% 0.00in /  0mm
03:28 39.7 °F /  4.3 °C 37.6 °F /  3.1 °C 30.06in /  1017.8hPa SSE 2.0mph /  3.2km/h 3.0mph /  4.8km/h 92% 0.00in /  0mm
03:33 39.5 °F /  4.2 °C 37.4 °F /  3 °C 30.06in /  1017.8hPa SSE 2.0mph /  3.2km/h 3.0mph /  4.8km/h 92% 0.00in /  0mm
03:38 39.6 °F /  4.2 °C 37.5 °F /  3.1 °C 30.06in /  1017.8hPa SSE 2.0mph /  3.2km/h 3.0mph /  4.8km/h 92% 0.00in /  0mm
03:44 39.5 °F /  4.2 °C 37.4 °F /  3 °C 30.06in /  1017.8hPa SSE 3.0mph /  4.8km/h 3.0mph /  4.8km/h 92% 0.00in /  0mm
03:49 39.5 °F /  4.2 °C 37.4 °F /  3 °C 30.06in /  1017.8hPa South 3.0mph /  4.8km/h 3.0mph /  4.8km/h 92% 0.00in /  0mm
03:54 39.7 °F /  4.3 °C 37.8 °F /  3.2 °C 30.06in /  1017.8hPa South 3.0mph /  4.8km/h 4.0mph /  6.4km/h 93% 0.00in /  0mm
03:59 39.7 °F /  4.3 °C 37.6 °F /  3.1 °C 30.06in /  1017.8hPa SSE 3.0mph /  4.8km/h 3.0mph /  4.8km/h 92% 0.00in /  0mm
04:04 39.8 °F /  4.3 °C 37.7 °F /  3.2 °C 30.06in /  1017.8hPa SSE 2.0mph /  3.2km/h 3.0mph /  4.8km/h 92% 0.00in /  0mm
04:09 39.9 °F /  4.4 °C 37.8 °F /  3.2 °C 30.06in /  1017.8hPa SSE 3.0mph /  4.8km/h 3.0mph /  4.8km/h 92% 0.00in /  0mm
04:14 40.0 °F /  4.4 °C 38.1 °F /  3.4 °C 30.06in /  1017.8hPa SSE 2.0mph /  3.2km/h 3.0mph /  4.8km/h 93% 0.00in /  0mm
04:19 40.0 °F /  4.4 °C 37.9 °F /  3.3 °C 30.06in /  1017.8hPa SSE 2.0mph /  3.2km/h 3.0mph /  4.8km/h 92% 0.00in /  0mm
04:24 40.1 °F /  4.5 °C 38.2 °F /  3.4 °C 30.06in /  1017.8hPa SSE 2.0mph /  3.2km/h 3.0mph /  4.8km/h 93% 0.00in /  0mm
04:29 40.3 °F /  4.6 °C 38.4 °F /  3.6 °C 30.06in /  1017.8hPa SSE 3.0mph /  4.8km/h 3.0mph /  4.8km/h 93% 0.00in /  0mm
04:34 40.4 °F /  4.7 °C 38.5 °F /  3.6 °C 30.06in /  1017.8hPa SE 3.0mph /  4.8km/h 4.0mph /  6.4km/h 93% 0.00in /  0mm
04:39 40.4 °F /  4.7 °C 38.3 °F /  3.5 °C 30.06in /  1017.8hPa SSE 3.0mph /  4.8km/h 3.0mph /  4.8km/h 92% 0.00in /  0mm
04:44 40.3 °F /  4.6 °C 38.2 °F /  3.4 °C 30.06in /  1017.8hPa SSE 2.0mph /  3.2km/h 5.0mph /  8km/h 92% 0.00in /  0mm
04:49 40.2 °F /  4.6 °C 38.1 °F /  3.4 °C 30.06in /  1017.8hPa SE 2.0mph /  3.2km/h 4.0mph /  6.4km/h 92% 0.00in /  0mm
04:54 40.0 °F /  4.4 °C 37.9 °F /  3.3 °C 30.06in /  1017.8hPa SSE 3.0mph /  4.8km/h 4.0mph /  6.4km/h 92% 0.00in /  0mm
04:59 39.5 °F /  4.2 °C 37.1 °F /  2.8 °C 30.06in /  1017.8hPa SSE 3.0mph /  4.8km/h 3.0mph /  4.8km/h 91% 0.00in /  0mm
05:04 39.2 °F /  4 °C 37.1 °F /  2.8 °C 30.06in /  1017.8hPa SSE 3.0mph /  4.8km/h 3.0mph /  4.8km/h 92% 0.00in /  0mm
05:09 39.1 °F /  3.9 °C 37.2 °F /  2.9 °C 30.06in /  1017.8hPa SSE 2.0mph /  3.2km/h 4.0mph /  6.4km/h 93% 0.00in /  0mm
05:14 38.9 °F /  3.8 °C 37.0 °F /  2.8 °C 30.06in /  1017.8hPa SSE 4.0mph /  6.4km/h 4.0mph /  6.4km/h 93% 0.00in /  0mm
05:19 39.2 °F /  4 °C 37.3 °F /  2.9 °C 30.06in /  1017.8hPa SSE 3.0mph /  4.8km/h 4.0mph /  6.4km/h 93% 0.00in /  0mm
05:24 39.4 °F /  4.1 °C 37.5 °F /  3.1 °C 30.06in /  1017.8hPa SSE 3.0mph /  4.8km/h 5.0mph /  8km/h 93% 0.00in /  0mm
05:29 39.7 °F /  4.3 °C 37.8 °F /  3.2 °C 30.06in /  1017.8hPa South 3.0mph /  4.8km/h 4.0mph /  6.4km/h 93% 0.00in /  0mm
05:34 40.0 °F /  4.4 °C 38.1 °F /  3.4 °C 30.06in /  1017.8hPa SSE 3.0mph /  4.8km/h 5.0mph /  8km/h 93% 0.00in /  0mm
05:39 40.2 °F /  4.6 °C 38.1 °F /  3.4 °C 30.06in /  1017.8hPa South 3.0mph /  4.8km/h 5.0mph /  8km/h 92% 0.00in /  0mm
05:44 40.5 °F /  4.7 °C 38.4 °F /  3.6 °C 30.06in /  1017.8hPa South 3.0mph /  4.8km/h 4.0mph /  6.4km/h 92% 0.00in /  0mm
05:47 40.6 °F /  4.8 °C 38.5 °F /  3.6 °C 30.06in /  1017.8hPa SSE 4.0mph /  6.4km/h 5.0mph /  8km/h 92% 0.00in /  0mm
05:52 40.8 °F /  4.9 °C 38.7 °F /  3.7 °C 30.07in /  1018.2hPa SSE 3.0mph /  4.8km/h 5.0mph /  8km/h 92% 0.00in /  0mm
05:57 40.9 °F /  4.9 °C 38.5 °F /  3.6 °C 30.07in /  1018.2hPa South 3.0mph /  4.8km/h 5.0mph /  8km/h 91% 0.00in /  0mm
06:02 41.1 °F /  5.1 °C 38.7 °F /  3.7 °C 30.07in /  1018.2hPa SSE 2.0mph /  3.2km/h 4.0mph /  6.4km/h 91% 0.00in /  0mm
06:07 41.2 °F /  5.1 °C 38.8 °F /  3.8 °C 30.07in /  1018.2hPa SE 1.0mph /  1.6km/h 4.0mph /  6.4km/h 91% 0.00in /  0mm
06:12 41.3 °F /  5.2 °C 38.6 °F /  3.7 °C 30.07in /  1018.2hPa SSE 3.0mph /  4.8km/h 4.0mph /  6.4km/h 90% 0.00in /  0mm
06:17 41.4 °F /  5.2 °C 38.7 °F /  3.7 °C 30.07in /  1018.2hPa SSE 1.0mph /  1.6km/h 3.0mph /  4.8km/h 90% 0.00in /  0mm
06:22 41.2 °F /  5.1 °C 38.5 °F /  3.6 °C 30.07in /  1018.2hPa SSE 1.0mph /  1.6km/h 4.0mph /  6.4km/h 90% 0.00in /  0mm
06:27 41.1 °F /  5.1 °C 38.4 °F /  3.6 °C 30.08in /  1018.5hPa SSE 2.0mph /  3.2km/h 3.0mph /  4.8km/h 90% 0.00in /  0mm
06:32 41.0 °F /  5 °C 38.3 °F /  3.5 °C 30.08in /  1018.5hPa SE 1.0mph /  1.6km/h 3.0mph /  4.8km/h 90% 0.00in /  0mm
06:37 40.8 °F /  4.9 °C 38.1 °F /  3.4 °C 30.08in /  1018.5hPa SSW 1.0mph /  1.6km/h 3.0mph /  4.8km/h 90% 0.00in /  0mm
06:42 40.9 °F /  4.9 °C 38.5 °F /  3.6 °C 30.08in /  1018.5hPa SSW 2.0mph /  3.2km/h 3.0mph /  4.8km/h 91% 0.00in /  0mm
06:47 41.0 °F /  5 °C 38.6 °F /  3.7 °C 30.09in /  1018.8hPa South 1.0mph /  1.6km/h 2.0mph /  3.2km/h 91% 0.00in /  0mm
06:52 41.2 °F /  5.1 °C 38.5 °F /  3.6 °C 30.09in /  1018.8hPa South 1.0mph /  1.6km/h 2.0mph /  3.2km/h 90% 0.00in /  0mm
06:57 41.3 °F /  5.2 °C 38.6 °F /  3.7 °C 30.10in /  1019.2hPa SW 1.0mph /  1.6km/h 2.0mph /  3.2km/h 90% 0.00in /  0mm
07:02 41.3 °F /  5.2 °C 38.3 °F /  3.5 °C 30.10in /  1019.2hPa SE 1.0mph /  1.6km/h 1.0mph /  1.6km/h 89% 0.00in /  0mm
07:07 41.3 °F /  5.2 °C 38.3 °F /  3.5 °C 30.10in /  1019.2hPa South 2.0mph /  3.2km/h 3.0mph /  4.8km/h 89% 0.00in /  0mm
07:12 41.3 °F /  5.2 °C 38.3 °F /  3.5 °C 30.11in /  1019.5hPa SW 1.0mph /  1.6km/h 2.0mph /  3.2km/h 89% 0.00in /  0mm
07:17 41.1 °F /  5.1 °C 38.1 °F /  3.4 °C 30.11in /  1019.5hPa SSW 2.0mph /  3.2km/h 3.0mph /  4.8km/h 89% 0.00in /  0mm
07:22 40.9 °F /  4.9 °C 37.6 °F /  3.1 °C 30.11in /  1019.5hPa SW 3.0mph /  4.8km/h 4.0mph /  6.4km/h 88% 0.00in /  0mm
07:27 40.9 °F /  4.9 °C 37.9 °F /  3.3 °C 30.11in /  1019.5hPa WSW 2.0mph /  3.2km/h 3.0mph /  4.8km/h 89% 0.00in /  0mm
07:32 40.9 °F /  4.9 °C 37.9 °F /  3.3 °C 30.11in /  1019.5hPa SW 2.0mph /  3.2km/h 3.0mph /  4.8km/h 89% 0.00in /  0mm
07:38 40.9 °F /  4.9 °C 37.9 °F /  3.3 °C 30.12in /  1019.9hPa WSW 2.0mph /  3.2km/h 3.0mph /  4.8km/h 89% 0.00in /  0mm
07:43 40.8 °F /  4.9 °C 37.8 °F /  3.2 °C 30.12in /  1019.9hPa SW 1.0mph /  1.6km/h 2.0mph /  3.2km/h 89% 0.00in /  0mm
07:48 40.7 °F /  4.8 °C 37.7 °F /  3.2 °C 30.13in /  1020.2hPa SW 1.0mph /  1.6km/h 2.0mph /  3.2km/h 89% 0.00in /  0mm
07:53 40.7 °F /  4.8 °C 38.0 °F /  3.3 °C 30.13in /  1020.2hPa SW 1.0mph /  1.6km/h 2.0mph /  3.2km/h 90% 0.00in /  0mm
07:58 40.8 °F /  4.9 °C 38.1 °F /  3.4 °C 30.13in /  1020.2hPa WSW 1.0mph /  1.6km/h 4.0mph /  6.4km/h 90% 0.00in /  0mm
08:03 41.0 °F /  5 °C 38.3 °F /  3.5 °C 30.13in /  1020.2hPa West 2.0mph /  3.2km/h 3.0mph /  4.8km/h 90% 0.00in /  0mm
08:08 41.2 °F /  5.1 °C 38.2 °F /  3.4 °C 30.14in /  1020.5hPa WSW 2.0mph /  3.2km/h 4.0mph /  6.4km/h 89% 0.00in /  0mm
08:13 41.3 °F /  5.2 °C 38.3 °F /  3.5 °C 30.14in /  1020.5hPa West 1.0mph /  1.6km/h 4.0mph /  6.4km/h 89% 0.00in /  0mm
08:18 41.4 °F /  5.2 °C 38.4 °F /  3.6 °C 30.14in /  1020.5hPa WNW 2.0mph /  3.2km/h 3.0mph /  4.8km/h 89% 0.00in /  0mm
08:23 41.4 °F /  5.2 °C 38.4 °F /  3.6 °C 30.15in /  1020.9hPa West 3.0mph /  4.8km/h 4.0mph /  6.4km/h 89% 0.00in /  0mm
08:28 41.6 °F /  5.3 °C 38.3 °F /  3.5 °C 30.15in /  1020.9hPa WNW 3.0mph /  4.8km/h 5.0mph /  8km/h 88% 0.00in /  0mm
08:33 41.8 °F /  5.4 °C 38.5 °F /  3.6 °C 30.15in /  1020.9hPa West 5.0mph /  8km/h 6.0mph /  9.7km/h 88% 0.00in /  0mm
08:38 42.3 °F /  5.7 °C 39.0 °F /  3.9 °C 30.16in /  1021.2hPa WNW 5.0mph /  8km/h 8.0mph /  12.9km/h 88% 0.00in /  0mm
08:43 42.7 °F /  5.9 °C 39.1 °F /  3.9 °C 30.16in /  1021.2hPa WNW 8.0mph /  12.9km/h 10.0mph /  16.1km/h 87% 0.00in /  0mm
08:48 42.9 °F /  6.1 °C 39.0 °F /  3.9 °C 30.16in /  1021.2hPa NW 9.0mph /  14.5km/h 13.0mph /  20.9km/h 86% 0.00in /  0mm
08:53 43.1 °F /  6.2 °C 39.5 °F /  4.2 °C 30.17in /  1021.6hPa WNW 6.0mph /  9.7km/h 12.0mph /  19.3km/h 87% 0.00in /  0mm
08:58 43.3 °F /  6.3 °C 39.7 °F /  4.3 °C 30.17in /  1021.6hPa WNW 7.0mph /  11.3km/h 11.0mph /  17.7km/h 87% 0.00in /  0mm
09:03 43.5 °F /  6.4 °C 39.9 °F /  4.4 °C 30.17in /  1021.6hPa NW 7.0mph /  11.3km/h 12.0mph /  19.3km/h 87% 0.00in /  0mm
09:08 43.5 °F /  6.4 °C 39.6 °F /  4.2 °C 30.17in /  1021.6hPa NNW 3.0mph /  4.8km/h 9.0mph /  14.5km/h 86% 0.00in /  0mm
09:13 43.9 °F /  6.6 °C 40.3 °F /  4.6 °C 30.17in /  1021.6hPa NW 7.0mph /  11.3km/h 7.0mph /  11.3km/h 87% 0.00in /  0mm
09:18 44.4 °F /  6.9 °C 40.5 °F /  4.7 °C 30.17in /  1021.6hPa NW 6.0mph /  9.7km/h 10.0mph /  16.1km/h 86% 0.00in /  0mm
09:23 44.8 °F /  7.1 °C 40.9 °F /  4.9 °C 30.17in /  1021.6hPa NW 5.0mph /  8km/h 11.0mph /  17.7km/h 86% 0.00in /  0mm
09:28 45.1 °F /  7.3 °C 40.9 °F /  4.9 °C 30.18in /  1021.9hPa NNW 10.0mph /  16.1km/h 13.0mph /  20.9km/h 85% 0.00in /  0mm
09:33 45.4 °F /  7.4 °C 41.2 °F /  5.1 °C 30.18in /  1021.9hPa WNW 9.0mph /  14.5km/h 13.0mph /  20.9km/h 85% 0.00in /  0mm
09:38 45.8 °F /  7.7 °C 41.2 °F /  5.1 °C 30.18in /  1021.9hPa WNW 9.0mph /  14.5km/h 18.0mph /  29km/h 84% 0.00in /  0mm
09:43 46.0 °F /  7.8 °C 41.1 °F /  5.1 °C 30.18in /  1021.9hPa WNW 8.0mph /  12.9km/h 16.0mph /  25.7km/h 83% 0.00in /  0mm
09:48 46.2 °F /  7.9 °C 41.3 °F /  5.2 °C 30.19in /  1022.2hPa NW 6.0mph /  9.7km/h 12.0mph /  19.3km/h 83% 0.00in /  0mm
09:53 46.3 °F /  7.9 °C 41.1 °F /  5.1 °C 30.19in /  1022.2hPa NNW 9.0mph /  14.5km/h 13.0mph /  20.9km/h 82% 0.00in /  0mm
09:58 46.5 °F /  8.1 °C 41.0 °F /  5 °C 30.20in /  1022.6hPa NNW 12.0mph /  19.3km/h 15.0mph /  24.1km/h 81% 0.00in /  0mm
10:04 46.6 °F /  8.1 °C 40.1 °F /  4.5 °C 30.21in /  1022.9hPa NW 13.0mph /  20.9km/h 22.0mph /  35.4km/h 78% 0.00in /  0mm
10:09 46.8 °F /  8.2 °C 39.3 °F /  4.1 °C 30.21in /  1022.9hPa NNW 12.0mph /  19.3km/h 18.0mph /  29km/h 75% 0.00in /  0mm
10:14 47.1 °F /  8.4 °C 39.2 °F /  4 °C 30.21in /  1022.9hPa NNW 8.0mph /  12.9km/h 18.0mph /  29km/h 74% 0.00in /  0mm
10:19 47.1 °F /  8.4 °C 38.9 °F /  3.8 °C 30.22in /  1023.2hPa NW 9.0mph /  14.5km/h 18.0mph /  29km/h 73% 0.00in /  0mm
10:24 47.1 °F /  8.4 °C 38.2 °F /  3.4 °C 30.22in /  1023.2hPa NW 15.0mph /  24.1km/h 18.0mph /  29km/h 71% 0.00in /  0mm
10:29 47.2 °F /  8.4 °C 36.8 °F /  2.7 °C 30.23in /  1023.6hPa NW 13.0mph /  20.9km/h 18.0mph /  29km/h 67% 0.00in /  0mm
10:34 47.2 °F /  8.4 °C 36.8 °F /  2.7 °C 30.23in /  1023.6hPa NW 11.0mph /  17.7km/h 18.0mph /  29km/h 67% 0.00in /  0mm
10:39 47.5 °F /  8.6 °C 37.1 °F /  2.8 °C 30.24in /  1023.9hPa NW 10.0mph /  16.1km/h 16.0mph /  25.7km/h 67% 0.00in /  0mm
10:44 47.2 °F /  8.4 °C 36.0 °F /  2.2 °C 30.24in /  1023.9hPa NW 12.0mph /  19.3km/h 24.0mph /  38.6km/h 65% 0.00in /  0mm
10:49 47.3 °F /  8.5 °C 35.4 °F /  1.9 °C 30.24in /  1023.9hPa NNW 12.0mph /  19.3km/h 20.0mph /  32.2km/h 63% 0.00in /  0mm
10:54 47.1 °F /  8.4 °C 30.4 °F /  -0.9 °C 30.25in /  1024.3hPa NW 16.0mph /  25.7km/h 26.0mph /  41.8km/h 52% 0.00in /  0mm
10:59 47.2 °F /  8.4 °C 31.9 °F /  -0.1 °C 30.25in /  1024.3hPa NW 14.0mph /  22.5km/h 20.0mph /  32.2km/h 55% 0.00in /  0mm
11:04 47.5 °F /  8.6 °C 32.6 °F /  0.3 °C 30.25in /  1024.3hPa NNW 14.0mph /  22.5km/h 21.0mph /  33.8km/h 56% 0.00in /  0mm
11:09 47.4 °F /  8.6 °C 32.1 °F /  0.1 °C 30.25in /  1024.3hPa NNW 10.0mph /  16.1km/h 18.0mph /  29km/h 55% 0.00in /  0mm
11:14 47.8 °F /  8.8 °C 31.5 °F /  -0.3 °C 30.26in /  1024.6hPa North 11.0mph /  17.7km/h 16.0mph /  25.7km/h 53% 0.00in /  0mm
11:19 47.9 °F /  8.8 °C 30.7 °F /  -0.7 °C 30.26in /  1024.6hPa NNW 15.0mph /  24.1km/h 18.0mph /  29km/h 51% 0.00in /  0mm
11:24 47.8 °F /  8.8 °C 30.6 °F /  -0.8 °C 30.26in /  1024.6hPa NNW 16.0mph /  25.7km/h 20.0mph /  32.2km/h 51% 0.00in /  0mm
11:29 47.9 °F /  8.8 °C 32.1 °F /  0.1 °C 30.26in /  1024.6hPa NW 13.0mph /  20.9km/h 17.0mph /  27.4km/h 54% 0.00in /  0mm
11:34 48.1 °F /  8.9 °C 32.3 °F /  0.2 °C 30.26in /  1024.6hPa NNW 11.0mph /  17.7km/h 14.0mph /  22.5km/h 54% 0.00in /  0mm
11:39 48.4 °F /  9.1 °C 31.6 °F /  -0.2 °C 30.27in /  1024.9hPa North 8.0mph /  12.9km/h 14.0mph /  22.5km/h 52% 0.00in /  0mm
11:44 48.6 °F /  9.2 °C 30.3 °F /  -0.9 °C 30.27in /  1024.9hPa NNW 12.0mph /  19.3km/h 17.0mph /  27.4km/h 49% 0.00in /  0mm
11:49 48.5 °F /  9.2 °C 27.6 °F /  -2.4 °C 30.27in /  1024.9hPa NNW 14.0mph /  22.5km/h 16.0mph /  25.7km/h 44% 0.00in /  0mm
11:54 48.5 °F /  9.2 °C 28.7 °F /  -1.8 °C 30.27in /  1024.9hPa NW 8.0mph /  12.9km/h 14.0mph /  22.5km/h 46% 0.00in /  0mm
11:59 48.5 °F /  9.2 °C 25.9 °F /  -3.4 °C 30.27in /  1024.9hPa NW 11.0mph /  17.7km/h 20.0mph /  32.2km/h 41% 0.00in /  0mm
12:04 48.3 °F /  9.1 °C 23.3 °F /  -4.8 °C 30.28in /  1025.3hPa NNW 9.0mph /  14.5km/h 20.0mph /  32.2km/h 37% 0.00in /  0mm
12:09 48.3 °F /  9.1 °C 24.5 °F /  -4.2 °C 30.28in /  1025.3hPa NNW 11.0mph /  17.7km/h 17.0mph /  27.4km/h 39% 0.00in /  0mm
12:14 48.1 °F /  8.9 °C 24.9 °F /  -3.9 °C 30.28in /  1025.3hPa NNW 13.0mph /  20.9km/h 16.0mph /  25.7km/h 40% 0.00in /  0mm
12:19 48.6 °F /  9.2 °C 25.4 °F /  -3.7 °C 30.28in /  1025.3hPa NW 13.0mph /  20.9km/h 20.0mph /  32.2km/h 40% 0.00in /  0mm
12:24 48.9 °F /  9.4 °C 25.0 °F /  -3.9 °C 30.27in /  1024.9hPa NNE 15.0mph /  24.1km/h 16.0mph /  25.7km/h 39% 0.00in /  0mm
12:29 48.9 °F /  9.4 °C 25.7 °F /  -3.5 °C 30.27in /  1024.9hPa NW 13.0mph /  20.9km/h 17.0mph /  27.4km/h 40% 0.00in /  0mm
12:34 48.8 °F /  9.3 °C 24.3 °F /  -4.3 °C 30.27in /  1024.9hPa NW 10.0mph /  16.1km/h 19.0mph /  30.6km/h 38% 0.00in /  0mm
12:39 48.7 °F /  9.3 °C 25.5 °F /  -3.6 °C 30.27in /  1024.9hPa North 8.0mph /  12.9km/h 18.0mph /  29km/h 40% 0.00in /  0mm
12:45 49.4 °F /  9.7 °C 25.5 °F /  -3.6 °C 30.27in /  1024.9hPa NW 12.0mph /  19.3km/h 18.0mph /  29km/h 39% 0.00in /  0mm
12:50 49.5 °F /  9.7 °C 25.0 °F /  -3.9 °C 30.27in /  1024.9hPa NW 13.0mph /  20.9km/h 20.0mph /  32.2km/h 38% 0.00in /  0mm
12:55 49.1 °F /  9.5 °C 23.3 °F /  -4.8 °C 30.27in /  1024.9hPa North 8.0mph /  12.9km/h 21.0mph /  33.8km/h 36% 0.00in /  0mm
13:00 49.2 °F /  9.6 °C 23.4 °F /  -4.8 °C 30.27in /  1024.9hPa NNW 7.0mph /  11.3km/h 15.0mph /  24.1km/h 36% 0.00in /  0mm
13:05 49.5 °F /  9.7 °C 25.0 °F /  -3.9 °C 30.26in /  1024.6hPa NNW 13.0mph /  20.9km/h 15.0mph /  24.1km/h 38% 0.00in /  0mm
13:10 49.6 °F /  9.8 °C 24.4 °F /  -4.2 °C 30.27in /  1024.9hPa NW 8.0mph /  12.9km/h 11.0mph /  17.7km/h 37% 0.00in /  0mm
13:15 49.5 °F /  9.7 °C 23.0 °F /  -5 °C 30.27in /  1024.9hPa NW 14.0mph /  22.5km/h 18.0mph /  29km/h 35% 0.00in /  0mm
13:20 49.0 °F /  9.4 °C 21.9 °F /  -5.6 °C 30.27in /  1024.9hPa NW 11.0mph /  17.7km/h 17.0mph /  27.4km/h 34% 0.00in /  0mm
13:25 49.5 °F /  9.7 °C 22.3 °F /  -5.4 °C 30.27in /  1024.9hPa NW 15.0mph /  24.1km/h 16.0mph /  25.7km/h 34% 0.00in /  0mm
13:30 49.3 °F /  9.6 °C 20.0 °F /  -6.7 °C 30.26in /  1024.6hPa NNW 11.0mph /  17.7km/h 16.0mph /  25.7km/h 31% 0.00in /  0mm
13:35 49.4 °F /  9.7 °C 21.5 °F /  -5.8 °C 30.26in /  1024.6hPa NNW 11.0mph /  17.7km/h 13.0mph /  20.9km/h 33% 0.00in /  0mm
13:40 49.4 °F /  9.7 °C 21.5 °F /  -5.8 °C 30.26in /  1024.6hPa NW 9.0mph /  14.5km/h 15.0mph /  24.1km/h 33% 0.00in /  0mm
13:45 49.7 °F /  9.8 °C 24.5 °F /  -4.2 °C 30.27in /  1024.9hPa NW 10.0mph /  16.1km/h 17.0mph /  27.4km/h 37% 0.00in /  0mm
13:50 49.7 °F /  9.8 °C 21.8 °F /  -5.7 °C 30.26in /  1024.6hPa NW 11.0mph /  17.7km/h 16.0mph /  25.7km/h 33% 0.00in /  0mm
13:55 49.5 °F /  9.7 °C 20.1 °F /  -6.6 °C 30.27in /  1024.9hPa WNW 9.0mph /  14.5km/h 20.0mph /  32.2km/h 31% 0.00in /  0mm
14:00 49.7 °F /  9.8 °C 18.8 °F /  -7.3 °C 30.27in /  1024.9hPa WNW 12.0mph /  19.3km/h 18.0mph /  29km/h 29% 0.00in /  0mm
14:05 49.6 °F /  9.8 °C 17.9 °F /  -7.8 °C 30.27in /  1024.9hPa NNW 13.0mph /  20.9km/h 18.0mph /  29km/h 28% 0.00in /  0mm
14:10 49.5 °F /  9.7 °C 20.9 °F /  -6.2 °C 30.26in /  1024.6hPa NNW 12.0mph /  19.3km/h 17.0mph /  27.4km/h 32% 0.00in /  0mm
14:15 49.7 °F /  9.8 °C 21.1 °F /  -6.1 °C 30.27in /  1024.9hPa NNE 10.0mph /  16.1km/h 16.0mph /  25.7km/h 32% 0.00in /  0mm
14:20 49.8 °F /  9.9 °C 20.4 °F /  -6.4 °C 30.27in /  1024.9hPa NNW 11.0mph /  17.7km/h 14.0mph /  22.5km/h 31% 0.00in /  0mm
14:25 49.9 °F /  9.9 °C 20.5 °F /  -6.4 °C 30.27in /  1024.9hPa NNW 6.0mph /  9.7km/h 11.0mph /  17.7km/h 31% 0.00in /  0mm
14:30 50.1 °F /  10.1 °C 20.7 °F /  -6.3 °C 30.27in /  1024.9hPa NNW 9.0mph /  14.5km/h 13.0mph /  20.9km/h 31% 0.00in /  0mm
14:35 50.1 °F /  10.1 °C 22.1 °F /  -5.5 °C 30.27in /  1024.9hPa NNW 10.0mph /  16.1km/h 11.0mph /  17.7km/h 33% 0.00in /  0mm
14:40 49.9 °F /  9.9 °C 22.0 °F /  -5.6 °C 30.27in /  1024.9hPa NNW 12.0mph /  19.3km/h 12.0mph /  19.3km/h 33% 0.00in /  0mm
14:45 50.3 °F /  10.2 °C 21.6 °F /  -5.8 °C 30.27in /  1024.9hPa NNW 8.0mph /  12.9km/h 11.0mph /  17.7km/h 32% 0.00in /  0mm
14:47 50.4 °F /  10.2 °C 20.1 °F /  -6.6 °C 30.27in /  1024.9hPa NW 5.0mph /  8km/h 11.0mph /  17.7km/h 30% 0.00in /  0mm
14:52 50.6 °F /  10.3 °C 19.5 °F /  -6.9 °C 30.27in /  1024.9hPa NW 8.0mph /  12.9km/h 14.0mph /  22.5km/h 29% 0.00in /  0mm
14:57 50.5 °F /  10.3 °C 18.6 °F /  -7.4 °C 30.28in /  1025.3hPa NNW 9.0mph /  14.5km/h 15.0mph /  24.1km/h 28% 0.00in /  0mm
15:02 50.1 °F /  10.1 °C 17.4 °F /  -8.1 °C 30.28in /  1025.3hPa WNW 9.0mph /  14.5km/h 13.0mph /  20.9km/h 27% 0.00in /  0mm
15:07 49.5 °F /  9.7 °C 19.4 °F /  -7 °C 30.28in /  1025.3hPa NNE 7.0mph /  11.3km/h 14.0mph /  22.5km/h 30% 0.00in /  0mm
15:12 49.6 °F /  9.8 °C 18.7 °F /  -7.4 °C 30.28in /  1025.3hPa WNW 5.0mph /  8km/h 10.0mph /  16.1km/h 29% 0.00in /  0mm
15:17 49.5 °F /  9.7 °C 17.8 °F /  -7.9 °C 30.28in /  1025.3hPa NNW 7.0mph /  11.3km/h 12.0mph /  19.3km/h 28% 0.00in /  0mm
15:22 49.5 °F /  9.7 °C 16.9 °F /  -8.4 °C 30.28in /  1025.3hPa NW 9.0mph /  14.5km/h 11.0mph /  17.7km/h 27% 0.00in /  0mm
15:27 49.2 °F /  9.6 °C 18.3 °F /  -7.6 °C 30.28in /  1025.3hPa NW 8.0mph /  12.9km/h 12.0mph /  19.3km/h 29% 0.00in /  0mm
15:32 48.7 °F /  9.3 °C 16.2 °F /  -8.8 °C 30.29in /  1025.6hPa NNW 12.0mph /  19.3km/h 15.0mph /  24.1km/h 27% 0.00in /  0mm
15:37 48.3 °F /  9.1 °C 17.5 °F /  -8.1 °C 30.29in /  1025.6hPa NNW 11.0mph /  17.7km/h 12.0mph /  19.3km/h 29% 0.00in /  0mm
15:42 48.0 °F /  8.9 °C 17.3 °F /  -8.2 °C 30.29in /  1025.6hPa NNW 9.0mph /  14.5km/h 13.0mph /  20.9km/h 29% 0.00in /  0mm
15:47 47.9 °F /  8.8 °C 18.7 °F /  -7.4 °C 30.29in /  1025.6hPa WNW 13.0mph /  20.9km/h 13.0mph /  20.9km/h 31% 0.00in /  0mm
15:52 47.7 °F /  8.7 °C 16.2 °F /  -8.8 °C 30.29in /  1025.6hPa NNW 5.0mph /  8km/h 10.0mph /  16.1km/h 28% 0.00in /  0mm
15:57 47.8 °F /  8.8 °C 19.4 °F /  -7 °C 30.30in /  1026hPa NW 6.0mph /  9.7km/h 6.0mph /  9.7km/h 32% 0.00in /  0mm
16:02 47.9 °F /  8.8 °C 18.0 °F /  -7.8 °C 30.30in /  1026hPa NW 10.0mph /  16.1km/h 11.0mph /  17.7km/h 30% 0.00in /  0mm
16:07 48.0 °F /  8.9 °C 18.8 °F /  -7.3 °C 30.30in /  1026hPa WNW 5.0mph /  8km/h 9.0mph /  14.5km/h 31% 0.00in /  0mm
16:12 48.0 °F /  8.9 °C 17.3 °F /  -8.2 °C 30.30in /  1026hPa NNW 6.0mph /  9.7km/h 9.0mph /  14.5km/h 29% 0.00in /  0mm
16:17 47.9 °F /  8.8 °C 18.7 °F /  -7.4 °C 30.30in /  1026hPa NNW 3.0mph /  4.8km/h 8.0mph /  12.9km/h 31% 0.00in /  0mm
16:22 47.9 °F /  8.8 °C 18.0 °F /  -7.8 °C 30.30in /  1026hPa NNW 5.0mph /  8km/h 9.0mph /  14.5km/h 30% 0.00in /  0mm
16:27 47.9 °F /  8.8 °C 19.5 °F /  -6.9 °C 30.31in /  1026.3hPa NW 6.0mph /  9.7km/h 12.0mph /  19.3km/h 32% 0.00in /  0mm
16:32 47.9 °F /  8.8 °C 19.5 °F /  -6.9 °C 30.31in /  1026.3hPa WNW 4.0mph /  6.4km/h 7.0mph /  11.3km/h 32% 0.00in /  0mm
16:37 48.1 °F /  8.9 °C 19.6 °F /  -6.9 °C 30.31in /  1026.3hPa NW 5.0mph /  8km/h 6.0mph /  9.7km/h 32% 0.00in /  0mm
16:42 48.3 °F /  9.1 °C 18.3 °F /  -7.6 °C 30.31in /  1026.3hPa NW 8.0mph /  12.9km/h 9.0mph /  14.5km/h 30% 0.00in /  0mm
16:47 48.3 °F /  9.1 °C 20.5 °F /  -6.4 °C 30.31in /  1026.3hPa NW 7.0mph /  11.3km/h 8.0mph /  12.9km/h 33% 0.00in /  0mm
16:52 48.0 °F /  8.9 °C 19.6 °F /  -6.9 °C 30.31in /  1026.3hPa NNW 7.0mph /  11.3km/h 7.0mph /  11.3km/h 32% 0.00in /  0mm
16:58 47.8 °F /  8.8 °C 20.8 °F /  -6.2 °C 30.31in /  1026.3hPa North 7.0mph /  11.3km/h 10.0mph /  16.1km/h 34% 0.00in /  0mm
17:03 47.7 °F /  8.7 °C 20.7 °F /  -6.3 °C 30.31in /  1026.3hPa NW 7.0mph /  11.3km/h 8.0mph /  12.9km/h 34% 0.00in /  0mm
17:08 47.6 °F /  8.7 °C 19.9 °F /  -6.7 °C 30.31in /  1026.3hPa NW 6.0mph /  9.7km/h 8.0mph /  12.9km/h 33% 0.00in /  0mm
17:13 47.4 °F /  8.6 °C 19.8 °F /  -6.8 °C 30.31in /  1026.3hPa NW 3.0mph /  4.8km/h 8.0mph /  12.9km/h 33% 0.00in /  0mm
17:18 47.0 °F /  8.3 °C 16.4 °F /  -8.7 °C 30.31in /  1026.3hPa NW 5.0mph /  8km/h 9.0mph /  14.5km/h 29% 0.00in /  0mm
17:23 46.5 °F /  8.1 °C 16.0 °F /  -8.9 °C 30.31in /  1026.3hPa NW 8.0mph /  12.9km/h 10.0mph /  16.1km/h 29% 0.00in /  0mm
17:28 46.2 °F /  7.9 °C 15.7 °F /  -9.1 °C 30.32in /  1026.6hPa WNW 7.0mph /  11.3km/h 12.0mph /  19.3km/h 29% 0.00in /  0mm
17:33 46.0 °F /  7.8 °C 15.5 °F /  -9.2 °C 30.32in /  1026.6hPa NW 7.0mph /  11.3km/h 13.0mph /  20.9km/h 29% 0.00in /  0mm
17:38 45.7 °F /  7.6 °C 16.1 °F /  -8.8 °C 30.32in /  1026.6hPa NW 4.0mph /  6.4km/h 8.0mph /  12.9km/h 30% 0.00in /  0mm
17:43 45.4 °F /  7.4 °C 15.8 °F /  -9 °C 30.32in /  1026.6hPa NW 6.0mph /  9.7km/h 7.0mph /  11.3km/h 30% 0.00in /  0mm
17:48 45.3 °F /  7.4 °C 17.2 °F /  -8.2 °C 30.32in /  1026.6hPa NNW 3.0mph /  4.8km/h 9.0mph /  14.5km/h 32% 0.00in /  0mm
17:53 45.0 °F /  7.2 °C 16.9 °F /  -8.4 °C 30.33in /  1027hPa WNW 5.0mph /  8km/h 7.0mph /  11.3km/h 32% 0.00in /  0mm
17:58 44.9 °F /  7.2 °C 17.6 °F /  -8 °C 30.33in /  1027hPa WNW 5.0mph /  8km/h 9.0mph /  14.5km/h 33% 0.00in /  0mm
18:03 44.7 °F /  7.1 °C 18.1 °F /  -7.7 °C 30.33in /  1027hPa NW 9.0mph /  14.5km/h 9.0mph /  14.5km/h 34% 0.00in /  0mm
18:08 44.5 °F /  6.9 °C 18.6 °F /  -7.4 °C 30.33in /  1027hPa NW 5.0mph /  8km/h 6.0mph /  9.7km/h 35% 0.00in /  0mm
18:13 44.1 °F /  6.7 °C 17.5 °F /  -8.1 °C 30.33in /  1027hPa NW 4.0mph /  6.4km/h 10.0mph /  16.1km/h 34% 0.00in /  0mm
18:18 43.8 °F /  6.6 °C 18.0 °F /  -7.8 °C 30.33in /  1027hPa NW 4.0mph /  6.4km/h 6.0mph /  9.7km/h 35% 0.00in /  0mm
18:23 43.3 °F /  6.3 °C 17.5 °F /  -8.1 °C 30.34in /  1027.3hPa WNW 3.0mph /  4.8km/h 7.0mph /  11.3km/h 35% 0.00in /  0mm
18:28 43.3 °F /  6.3 °C 16.1 °F /  -8.8 °C 30.34in /  1027.3hPa NW 2.0mph /  3.2km/h 7.0mph /  11.3km/h 33% 0.00in /  0mm
18:33 43.0 °F /  6.1 °C 17.2 °F /  -8.2 °C 30.34in /  1027.3hPa NW 3.0mph /  4.8km/h 4.0mph /  6.4km/h 35% 0.00in /  0mm
18:38 42.7 °F /  5.9 °C 17.0 °F /  -8.3 °C 30.34in /  1027.3hPa NW 3.0mph /  4.8km/h 6.0mph /  9.7km/h 35% 0.00in /  0mm
18:43 42.4 °F /  5.8 °C 16.7 °F /  -8.5 °C 30.34in /  1027.3hPa NW 3.0mph /  4.8km/h 4.0mph /  6.4km/h 35% 0.00in /  0mm
18:49 42.2 °F /  5.7 °C 17.2 °F /  -8.2 °C 30.34in /  1027.3hPa NW 3.0mph /  4.8km/h 6.0mph /  9.7km/h 36% 0.00in /  0mm
18:53 41.8 °F /  5.4 °C 17.5 °F /  -8.1 °C 30.34in /  1027.3hPa NW 4.0mph /  6.4km/h 5.0mph /  8km/h 37% 0.00in /  0mm
18:59 41.6 °F /  5.3 °C 16.6 °F /  -8.6 °C 30.35in /  1027.7hPa NW 4.0mph /  6.4km/h 6.0mph /  9.7km/h 36% 0.00in /  0mm
19:04 41.4 °F /  5.2 °C 17.1 °F /  -8.3 °C 30.34in /  1027.3hPa NW 4.0mph /  6.4km/h 4.0mph /  6.4km/h 37% 0.00in /  0mm
19:09 41.3 °F /  5.2 °C 17.0 °F /  -8.3 °C 30.35in /  1027.7hPa NW 3.0mph /  4.8km/h 6.0mph /  9.7km/h 37% 0.00in /  0mm
19:14 41.2 °F /  5.1 °C 16.9 °F /  -8.4 °C 30.35in /  1027.7hPa NW 3.0mph /  4.8km/h 5.0mph /  8km/h 37% 0.00in /  0mm
19:19 41.1 °F /  5.1 °C 16.8 °F /  -8.4 °C 30.35in /  1027.7hPa NW 3.0mph /  4.8km/h 5.0mph /  8km/h 37% 0.00in /  0mm
19:24 41.0 °F /  5 °C 16.7 °F /  -8.5 °C 30.35in /  1027.7hPa NNW 2.0mph /  3.2km/h 3.0mph /  4.8km/h 37% 0.00in /  0mm
19:29 40.9 °F /  4.9 °C 16.6 °F /  -8.6 °C 30.35in /  1027.7hPa NW 3.0mph /  4.8km/h 4.0mph /  6.4km/h 37% 0.00in /  0mm
19:34 40.8 °F /  4.9 °C 17.2 °F /  -8.2 °C 30.35in /  1027.7hPa NW 2.0mph /  3.2km/h 4.0mph /  6.4km/h 38% 0.00in /  0mm
19:39 40.6 °F /  4.8 °C 17.0 °F /  -8.3 °C 30.35in /  1027.7hPa NW 3.0mph /  4.8km/h 4.0mph /  6.4km/h 38% 0.00in /  0mm
19:44 40.5 °F /  4.7 °C 16.9 °F /  -8.4 °C 30.35in /  1027.7hPa NW 3.0mph /  4.8km/h 4.0mph /  6.4km/h 38% 0.00in /  0mm
19:49 40.3 °F /  4.6 °C 17.3 °F /  -8.2 °C 30.35in /  1027.7hPa NW 2.0mph /  3.2km/h 3.0mph /  4.8km/h 39% 0.00in /  0mm
19:54 40.1 °F /  4.5 °C 17.1 °F /  -8.3 °C 30.35in /  1027.7hPa NW 2.0mph /  3.2km/h 4.0mph /  6.4km/h 39% 0.00in /  0mm
19:59 39.8 °F /  4.3 °C 17.5 °F /  -8.1 °C 30.35in /  1027.7hPa NNW 3.0mph /  4.8km/h 3.0mph /  4.8km/h 40% 0.00in /  0mm
20:04 39.8 °F /  4.3 °C 16.9 °F /  -8.4 °C 30.35in /  1027.7hPa NNW 3.0mph /  4.8km/h 4.0mph /  6.4km/h 39% 0.00in /  0mm
20:09 39.8 °F /  4.3 °C 16.9 °F /  -8.4 °C 30.36in /  1028hPa NW 3.0mph /  4.8km/h 3.0mph /  4.8km/h 39% 0.00in /  0mm
20:14 39.7 °F /  4.3 °C 16.8 °F /  -8.4 °C 30.36in /  1028hPa NNW 2.0mph /  3.2km/h 2.0mph /  3.2km/h 39% 0.00in /  0mm
20:19 39.6 °F /  4.2 °C 16.7 °F /  -8.5 °C 30.36in /  1028hPa NNW 3.0mph /  4.8km/h 4.0mph /  6.4km/h 39% 0.00in /  0mm
20:24 39.3 °F /  4.1 °C 17.0 °F /  -8.3 °C 30.36in /  1028hPa NNW 3.0mph /  4.8km/h 4.0mph /  6.4km/h 40% 0.00in /  0mm
20:29 39.2 °F /  4 °C 16.9 °F /  -8.4 °C 30.36in /  1028hPa NNW 2.0mph /  3.2km/h 4.0mph /  6.4km/h 40% 0.00in /  0mm
20:34 39.0 °F /  3.9 °C 16.7 °F /  -8.5 °C 30.36in /  1028hPa NNW 3.0mph /  4.8km/h 4.0mph /  6.4km/h 40% 0.00in /  0mm
20:39 38.8 °F /  3.8 °C 17.1 °F /  -8.3 °C 30.36in /  1028hPa NNW 3.0mph /  4.8km/h 5.0mph /  8km/h 41% 0.00in /  0mm
20:44 38.7 °F /  3.7 °C 17.0 °F /  -8.3 °C 30.36in /  1028hPa North 4.0mph /  6.4km/h 5.0mph /  8km/h 41% 0.00in /  0mm
20:49 38.6 °F /  3.7 °C 17.0 °F /  -8.3 °C 30.36in /  1028hPa NNW 3.0mph /  4.8km/h 4.0mph /  6.4km/h 41% 0.00in /  0mm
20:54 38.5 °F /  3.6 °C 16.3 °F /  -8.7 °C 30.36in /  1028hPa NNW 3.0mph /  4.8km/h 4.0mph /  6.4km/h 40% 0.00in /  0mm
20:59 38.4 °F /  3.6 °C 16.8 °F /  -8.4 °C 30.36in /  1028hPa NNW 2.0mph /  3.2km/h 5.0mph /  8km/h 41% 0.00in /  0mm
21:04 38.2 °F /  3.4 °C 16.6 °F /  -8.6 °C 30.36in /  1028hPa NNW 2.0mph /  3.2km/h 4.0mph /  6.4km/h 41% 0.00in /  0mm
21:09 38.0 °F /  3.3 °C 17.0 °F /  -8.3 °C 30.35in /  1027.7hPa North 2.0mph /  3.2km/h 3.0mph /  4.8km/h 42% 0.00in /  0mm
21:14 37.7 °F /  3.2 °C 17.2 °F /  -8.2 °C 30.35in /  1027.7hPa North 2.0mph /  3.2km/h 3.0mph /  4.8km/h 43% 0.00in /  0mm
21:19 37.5 °F /  3.1 °C 17.0 °F /  -8.3 °C 30.35in /  1027.7hPa North 1.0mph /  1.6km/h 3.0mph /  4.8km/h 43% 0.00in /  0mm
21:24 37.2 °F /  2.9 °C 16.8 °F /  -8.4 °C 30.35in /  1027.7hPa North 2.0mph /  3.2km/h 2.0mph /  3.2km/h 43% 0.00in /  0mm
21:29 37.2 °F /  2.9 °C 16.8 °F /  -8.4 °C 30.35in /  1027.7hPa NNW 2.0mph /  3.2km/h 2.0mph /  3.2km/h 43% 0.00in /  0mm
21:34 37.3 °F /  2.9 °C 16.3 °F /  -8.7 °C 30.35in /  1027.7hPa NNW 2.0mph /  3.2km/h 2.0mph /  3.2km/h 42% 0.00in /  0mm
21:40 37.0 °F /  2.8 °C 16.6 °F /  -8.6 °C 30.35in /  1027.7hPa NNW 2.0mph /  3.2km/h 2.0mph /  3.2km/h 43% 0.00in /  0mm
21:45 36.8 °F /  2.7 °C 16.4 °F /  -8.7 °C 30.36in /  1028hPa NNW 2.0mph /  3.2km/h 3.0mph /  4.8km/h 43% 0.00in /  0mm
21:50 36.6 °F /  2.6 °C 16.8 °F /  -8.4 °C 30.36in /  1028hPa NNW 2.0mph /  3.2km/h 3.0mph /  4.8km/h 44% 0.00in /  0mm
21:55 36.1 °F /  2.3 °C 16.8 °F /  -8.4 °C 30.36in /  1028hPa NNW 2.0mph /  3.2km/h 2.0mph /  3.2km/h 45% 0.00in /  0mm
22:00 35.6 °F /  2 °C 17.4 °F /  -8.1 °C 30.37in /  1028.3hPa NNW 3.0mph /  4.8km/h 4.0mph /  6.4km/h 47% 0.00in /  0mm
22:05 35.6 °F /  2 °C 17.4 °F /  -8.1 °C 30.37in /  1028.3hPa NNW 3.0mph /  4.8km/h 4.0mph /  6.4km/h 47% 0.00in /  0mm
22:10 35.7 °F /  2.1 °C 17.5 °F /  -8.1 °C 30.37in /  1028.3hPa NNW 3.0mph /  4.8km/h 3.0mph /  4.8km/h 47% 0.00in /  0mm
22:15 35.8 °F /  2.1 °C 17.6 °F /  -8 °C 30.37in /  1028.3hPa NNW 3.0mph /  4.8km/h 3.0mph /  4.8km/h 47% 0.00in /  0mm
22:20 35.9 °F /  2.2 °C 17.6 °F /  -8 °C 30.37in /  1028.3hPa NNW 3.0mph /  4.8km/h 3.0mph /  4.8km/h 47% 0.00in /  0mm
22:25 35.9 °F /  2.2 °C 17.6 °F /  -8 °C 30.37in /  1028.3hPa North 2.0mph /  3.2km/h 4.0mph /  6.4km/h 47% 0.00in /  0mm
22:30 35.8 °F /  2.1 °C 17.6 °F /  -8 °C 30.37in /  1028.3hPa NNE 1.0mph /  1.6km/h 2.0mph /  3.2km/h 47% 0.00in /  0mm
22:36 35.7 °F /  2.1 °C 17.5 °F /  -8.1 °C 30.37in /  1028.3hPa North 2.0mph /  3.2km/h 2.0mph /  3.2km/h 47% 0.00in /  0mm
22:41 35.7 °F /  2.1 °C 18.0 °F /  -7.8 °C 30.37in /  1028.3hPa NNW 2.0mph /  3.2km/h 3.0mph /  4.8km/h 48% 0.00in /  0mm
22:46 35.7 °F /  2.1 °C 17.5 °F /  -8.1 °C 30.37in /  1028.3hPa NNW 2.0mph /  3.2km/h 3.0mph /  4.8km/h 47% 0.00in /  0mm
22:51 35.6 °F /  2 °C 17.9 °F /  -7.8 °C 30.37in /  1028.3hPa NNW 3.0mph /  4.8km/h 3.0mph /  4.8km/h 48% 0.00in /  0mm
22:56 35.5 °F /  1.9 °C 17.8 °F /  -7.9 °C 30.37in /  1028.3hPa NNW 3.0mph /  4.8km/h 4.0mph /  6.4km/h 48% 0.00in /  0mm
23:01 35.4 °F /  1.9 °C 17.7 °F /  -7.9 °C 30.37in /  1028.3hPa NNW 3.0mph /  4.8km/h 4.0mph /  6.4km/h 48% 0.00in /  0mm
23:06 35.4 °F /  1.9 °C 18.1 °F /  -7.7 °C 30.37in /  1028.3hPa NNW 3.0mph /  4.8km/h 3.0mph /  4.8km/h 49% 0.00in /  0mm
23:11 35.2 °F /  1.8 °C 18.0 °F /  -7.8 °C 30.38in /  1028.7hPa NNW 2.0mph /  3.2km/h 4.0mph /  6.4km/h 49% 0.00in /  0mm
23:16 35.1 °F /  1.7 °C 18.4 °F /  -7.6 °C 30.37in /  1028.3hPa NNW 2.0mph /  3.2km/h 3.0mph /  4.8km/h 50% 0.00in /  0mm
23:21 35.1 °F /  1.7 °C 18.4 °F /  -7.6 °C 30.38in /  1028.7hPa NNW 2.0mph /  3.2km/h 3.0mph /  4.8km/h 50% 0.00in /  0mm
23:26 34.9 °F /  1.6 °C 18.2 °F /  -7.7 °C 30.37in /  1028.3hPa NNW 1.0mph /  1.6km/h 3.0mph /  4.8km/h 50% 0.00in /  0mm
23:31 34.5 °F /  1.4 °C 18.7 °F /  -7.4 °C 30.38in /  1028.7hPa Calm   1.0mph /  1.6km/h 52% 0.00in /  0mm
23:36 33.9 °F /  1.1 °C 19.0 °F /  -7.2 °C 30.38in /  1028.7hPa NNW 1.0mph /  1.6km/h 1.0mph /  1.6km/h 54% 0.00in /  0mm
23:41 33.7 °F /  0.9 °C 18.8 °F /  -7.3 °C 30.38in /  1028.7hPa Calm     54% 0.00in /  0mm
23:46 33.2 °F /  0.7 °C 18.4 °F /  -7.6 °C 30.38in /  1028.7hPa Calm     54% 0.00in /  0mm
23:51 32.3 °F /  0.2 °C 17.5 °F /  -8.1 °C 30.38in /  1028.7hPa Calm     54% 0.00in /  0mm
23:56 31.1 °F /  -0.5 °C 16.8 °F /  -8.4 °C 30.38in /  1028.7hPa Calm     55% 0.00in /  0mm
Compliments of Weather Underground